Time;durP1;ratioP1;P1;durP2;ratioP2;P2;SDS_P1;SDS_P2;PMS_P1;PMS_P2;Temp;Humidity;BMP_temperature;BMP_pressure;BME280_temperature;BME280_humidity;BME280_pressure;Samples;Min_cycle;Max_cycle;Signal;HPM_P1;HPM_P2
2021/04/18 00:02:21;;;;;;;4.00;3.70;;;11.60;54.10;;;;;;5017443;28;20604;-44
2021/04/18 00:04:46;;;;;;;5.00;4.50;;;11.60;53.50;;;;;;5025084;28;20505;-43
2021/04/18 00:07:12;;;;;;;4.00;3.70;;;11.60;53.60;;;;;;5026273;28;20646;-42
2021/04/18 00:09:39;;;;;;;2.93;2.70;;;11.60;53.60;;;;;;5023512;28;20193;-43
2021/04/18 00:12:05;;;;;;;3.60;3.30;;;11.50;53.50;;;;;;5022914;28;20452;-43
2021/04/18 00:14:31;;;;;;;4.20;3.90;;;11.50;53.60;;;;;;5023427;28;20436;-42
2021/04/18 00:16:56;;;;;;;4.13;3.73;;;11.50;53.70;;;;;;5028957;28;20855;-43
2021/04/18 00:19:22;;;;;;;4.07;3.77;;;11.40;53.60;;;;;;5026330;28;20236;-42
2021/04/18 00:21:48;;;;;;;3.43;3.13;;;11.50;53.60;;;;;;5028572;28;20628;-42
2021/04/18 00:24:14;;;;;;;3.50;3.20;;;11.50;53.60;;;;;;5030035;28;20201;-42
2021/04/18 00:26:40;;;;;;;4.03;3.57;;;11.50;53.60;;;;;;5028738;28;20492;-42
2021/04/18 00:29:05;;;;;;;4.00;3.70;;;11.50;53.50;;;;;;5032108;28;20671;-45
2021/04/18 00:31:31;;;;;;;4.30;4.00;;;11.40;53.50;;;;;;5030314;28;20255;-43
2021/04/18 00:33:57;;;;;;;3.80;3.50;;;11.40;53.50;;;;;;5023557;28;20208;-44
2021/04/18 00:36:22;;;;;;;4.13;3.73;;;11.40;53.50;;;;;;5031239;28;20225;-44
2021/04/18 00:38:48;;;;;;;3.50;3.20;;;11.40;53.60;;;;;;5030670;28;20526;-42
2021/04/18 00:41:14;;;;;;;4.47;4.10;;;11.40;53.70;;;;;;5021069;28;20610;-43
2021/04/18 00:43:43;;;;;;;4.37;3.97;;;11.30;53.70;;;;;;5023713;28;20208;-43
2021/04/18 00:46:10;;;;;;;5.70;3.90;;;11.30;53.80;;;;;;5022872;28;20544;-42
2021/04/18 00:48:42;;;;;;;4.60;4.20;;;11.30;53.90;;;;;;5027083;28;20464;-42
2021/04/18 00:51:09;;;;;;;4.63;3.87;;;11.30;53.90;;;;;;5023913;28;20471;-42
2021/04/18 00:53:35;;;;;;;4.77;3.60;;;11.30;54.00;;;;;;5024520;28;20451;-42
2021/04/18 00:56:01;;;;;;;4.00;3.70;;;11.30;54.10;;;;;;5033905;28;20439;-42
2021/04/18 00:58:27;;;;;;;6.37;4.20;;;11.20;54.50;;;;;;5030783;28;20225;-43
2021/04/18 01:00:52;;;;;;;6.00;4.50;;;11.20;54.50;;;;;;5026189;28;20584;-42
2021/04/18 01:03:18;;;;;;;4.60;4.20;;;11.20;54.10;;;;;;5020962;28;20197;-44
2021/04/18 01:05:44;;;;;;;5.17;4.77;;;11.30;54.20;;;;;;5031498;28;20282;-43
2021/04/18 01:08:10;;;;;;;5.83;4.00;;;11.30;54.10;;;;;;5031587;28;20581;-44
2021/04/18 01:10:37;;;;;;;4.57;4.17;;;11.30;54.00;;;;;;5023186;28;20451;-43
2021/04/18 01:13:02;;;;;;;5.00;4.40;;;11.30;54.00;;;;;;5022125;28;20193;-42
2021/04/18 01:15:28;;;;;;;4.53;4.07;;;11.20;53.90;;;;;;5023077;28;20449;-44
2021/04/18 01:17:54;;;;;;;4.30;3.90;;;11.20;54.00;;;;;;5025098;28;20243;-43
2021/04/18 01:20:22;;;;;;;5.00;4.40;;;11.20;54.20;;;;;;5027342;28;20200;-43
2021/04/18 01:22:49;;;;;;;5.60;5.10;;;11.10;54.30;;;;;;5025900;28;20254;-42
2021/04/18 01:25:15;;;;;;;5.27;4.77;;;11.10;54.30;;;;;;5027297;28;20939;-43
2021/04/18 01:27:45;;;;;;;4.90;4.40;;;11.10;54.20;;;;;;5025130;28;22039;-43
2021/04/18 01:30:14;;;;;;;4.80;4.30;;;11.20;54.20;;;;;;5029909;28;20440;-43
2021/04/18 01:32:45;;;;;;;4.40;3.90;;;11.10;54.10;;;;;;5026179;28;20529;-42
2021/04/18 01:35:11;;;;;;;4.17;3.80;;;11.20;54.30;;;;;;5025357;28;20440;-43
2021/04/18 01:37:37;;;;;;;4.27;3.93;;;11.20;54.40;;;;;;5022125;28;20483;-44
2021/04/18 01:40:05;;;;;;;4.80;4.40;;;11.20;54.50;;;;;;5019833;28;20459;-44
2021/04/18 01:42:31;;;;;;;4.80;4.40;;;11.10;54.60;;;;;;5018954;28;20555;-43
2021/04/18 01:44:57;;;;;;;5.17;4.67;;;11.10;54.60;;;;;;5029124;28;20829;-42
2021/04/18 01:47:22;;;;;;;4.33;4.03;;;11.20;54.70;;;;;;5020819;28;20445;-42
2021/04/18 01:49:48;;;;;;;5.23;4.73;;;11.20;54.70;;;;;;5029485;28;20193;-42
2021/04/18 01:52:13;;;;;;;6.00;4.70;;;11.20;54.70;;;;;;5027603;28;20193;-43
2021/04/18 01:54:39;;;;;;;4.67;4.00;;;11.20;54.70;;;;;;5021285;28;20189;-45
2021/04/18 01:57:05;;;;;;;4.50;4.10;;;11.20;54.80;;;;;;5025399;28;20229;-42
2021/04/18 01:59:30;;;;;;;4.67;4.37;;;11.20;54.80;;;;;;5026990;28;20194;-42
2021/04/18 02:02:07;;;;;;;4.87;4.47;;;11.10;55.00;;;;;;5027164;28;20819;-42
2021/04/18 02:04:32;;;;;;;6.07;4.67;;;11.20;55.00;;;;;;5016937;28;20197;-42
2021/04/18 02:06:58;;;;;;;5.53;5.03;;;11.10;55.00;;;;;;5028131;28;20458;-42
2021/04/18 02:09:24;;;;;;;5.27;4.77;;;11.10;55.10;;;;;;5025207;28;20198;-43
2021/04/18 02:11:49;;;;;;;6.27;5.63;;;11.10;55.20;;;;;;5026258;28;20197;-43
2021/04/18 02:14:15;;;;;;;5.53;4.93;;;11.10;55.70;;;;;;5025319;28;20200;-43
2021/04/18 02:16:40;;;;;;;4.80;4.50;;;11.10;55.20;;;;;;5026528;28;20226;-42
2021/04/18 02:19:06;;;;;;;5.70;5.20;;;11.10;55.10;;;;;;5029470;28;20240;-43
2021/04/18 02:21:32;;;;;;;5.10;4.60;;;11.10;55.00;;;;;;5023253;28;20267;-46
2021/04/18 02:23:57;;;;;;;4.90;4.50;;;11.10;55.10;;;;;;5023846;28;20567;-43
2021/04/18 02:26:23;;;;;;;5.10;4.40;;;11.10;55.20;;;;;;5024596;28;20245;-44
2021/04/18 02:28:49;;;;;;;5.40;5.00;;;11.10;55.20;;;;;;5029054;28;20641;-45
2021/04/18 02:31:14;;;;;;;5.90;5.40;;;11.00;55.10;;;;;;5026754;28;20220;-45
2021/04/18 02:33:40;;;;;;;5.23;4.70;;;11.00;55.10;;;;;;5028894;28;20201;-43
2021/04/18 02:36:06;;;;;;;5.47;4.97;;;11.10;55.30;;;;;;5027893;28;20200;-43
2021/04/18 02:38:32;;;;;;;5.47;4.97;;;11.10;55.30;;;;;;5028526;28;20576;-43
2021/04/18 02:40:57;;;;;;;6.00;5.40;;;11.10;55.20;;;;;;5022455;28;20444;-44
2021/04/18 02:43:23;;;;;;;5.40;4.87;;;11.10;55.20;;;;;;5029263;28;20215;-44
2021/04/18 02:45:49;;;;;;;8.60;6.63;;;11.00;55.10;;;;;;5028193;28;20200;-42
2021/04/18 02:48:15;;;;;;;5.17;4.53;;;11.10;55.10;;;;;;5024047;28;20194;-44
2021/04/18 02:50:40;;;;;;;6.10;5.50;;;11.10;55.10;;;;;;5028755;28;21310;-44
2021/04/18 02:53:06;;;;;;;6.20;4.83;;;11.10;55.00;;;;;;5006795;28;20193;-43
2021/04/18 02:55:31;;;;;;;6.00;4.67;;;11.00;55.00;;;;;;5028169;28;20201;-42
2021/04/18 02:57:57;;;;;;;5.87;5.30;;;11.10;55.00;;;;;;5023809;28;20263;-43
2021/04/18 03:00:23;;;;;;;5.70;4.93;;;11.10;55.00;;;;;;5019835;28;20409;-42
2021/04/18 03:02:48;;;;;;;5.87;5.33;;;11.10;54.90;;;;;;5026921;28;20267;-42
2021/04/18 03:05:14;;;;;;;6.30;5.70;;;11.10;54.70;;;;;;5021224;28;20200;-42
2021/04/18 03:07:40;;;;;;;6.13;5.53;;;11.10;54.70;;;;;;5023152;28;20273;-44
2021/04/18 03:10:06;;;;;;;7.80;6.30;;;11.10;54.80;;;;;;5020775;28;20700;-44
2021/04/18 03:12:31;;;;;;;9.27;6.83;;;11.00;54.70;;;;;;5025351;28;20207;-43
2021/04/18 03:14:57;;;;;;;6.63;6.07;;;11.00;54.80;;;;;;5025139;28;20454;-44
2021/04/18 03:17:23;;;;;;;6.13;5.53;;;11.00;55.00;;;;;;5024323;28;20287;-43
2021/04/18 03:19:48;;;;;;;6.23;5.63;;;11.00;54.70;;;;;;5028699;28;20196;-44
2021/04/18 03:22:14;;;;;;;5.43;4.90;;;11.00;54.50;;;;;;5027371;28;20446;-43
2021/04/18 03:24:41;;;;;;;6.03;4.77;;;11.00;54.50;;;;;;5015790;28;20221;-46
2021/04/18 03:27:07;;;;;;;5.53;5.03;;;11.00;54.30;;;;;;5022216;28;20436;-43
2021/04/18 03:29:32;;;;;;;5.10;4.60;;;11.00;54.30;;;;;;5026975;28;20467;-44
2021/04/18 03:31:58;;;;;;;5.70;5.20;;;11.00;54.10;;;;;;5027843;28;20474;-45
2021/04/18 03:34:24;;;;;;;5.37;4.87;;;11.00;54.30;;;;;;5027199;28;20687;-44
2021/04/18 03:36:50;;;;;;;5.93;5.27;;;11.00;54.60;;;;;;5022299;28;20224;-43
2021/04/18 03:39:16;;;;;;;5.77;5.30;;;11.00;54.80;;;;;;5027077;28;20209;-42
2021/04/18 03:41:42;;;;;;;6.60;6.00;;;11.00;54.80;;;;;;5024309;28;20448;-44
2021/04/18 03:44:07;;;;;;;6.67;6.00;;;11.00;54.80;;;;;;5026062;28;20194;-42
2021/04/18 03:46:33;;;;;;;5.83;5.20;;;11.00;54.70;;;;;;5022620;28;20209;-42
2021/04/18 03:48:59;;;;;;;5.20;4.70;;;11.00;54.70;;;;;;5025198;28;20192;-44
2021/04/18 03:51:24;;;;;;;5.43;4.93;;;11.10;54.60;;;;;;5031019;28;20246;-42
2021/04/18 03:53:50;;;;;;;5.37;4.93;;;11.00;54.50;;;;;;5029861;28;20204;-42
2021/04/18 03:56:16;;;;;;;6.07;5.57;;;11.00;54.90;;;;;;5022815;28;20206;-43
2021/04/18 03:58:41;;;;;;;5.80;5.23;;;11.00;55.10;;;;;;5031009;28;20284;-43
2021/04/18 04:01:07;;;;;;;6.20;5.70;;;11.00;55.50;;;;;;5023738;28;20218;-43
2021/04/18 04:03:33;;;;;;;7.07;6.37;;;11.00;55.70;;;;;;5027318;28;20198;-43
2021/04/18 04:05:58;;;;;;;5.50;5.00;;;10.90;56.10;;;;;;5021496;28;20645;-43
2021/04/18 04:08:24;;;;;;;7.20;5.60;;;11.00;55.70;;;;;;5031274;28;20204;-43
2021/04/18 04:10:50;;;;;;;5.47;5.03;;;11.00;55.60;;;;;;5030496;28;20229;-43
2021/04/18 04:13:15;;;;;;;6.57;5.97;;;11.00;55.50;;;;;;5031613;28;20212;-43
2021/04/18 04:15:41;;;;;;;5.37;4.93;;;11.00;55.50;;;;;;5017180;28;20197;-43
2021/04/18 04:18:06;;;;;;;6.17;5.57;;;11.00;55.40;;;;;;5025221;28;20662;-43
2021/04/18 04:20:32;;;;;;;6.63;5.93;;;11.00;55.40;;;;;;5031764;28;21066;-44
2021/04/18 04:22:58;;;;;;;5.90;5.30;;;11.00;55.60;;;;;;5024813;28;20250;-42
2021/04/18 04:25:24;;;;;;;6.63;6.03;;;11.00;55.50;;;;;;5026494;28;20247;-42
2021/04/18 04:27:50;;;;;;;7.17;6.57;;;11.00;55.40;;;;;;5022139;28;20443;-42
2021/04/18 04:30:16;;;;;;;7.27;6.60;;;11.00;55.40;;;;;;5024750;28;20202;-42
2021/04/18 04:32:41;;;;;;;6.43;5.80;;;11.00;55.40;;;;;;5024944;28;20250;-44
2021/04/18 04:35:08;;;;;;;6.40;5.87;;;11.00;55.50;;;;;;5030425;28;20543;-42
2021/04/18 04:37:33;;;;;;;6.00;5.50;;;11.00;55.80;;;;;;5006703;28;20224;-46
2021/04/18 04:39:59;;;;;;;6.33;5.60;;;11.00;56.60;;;;;;5026887;28;20464;-44
2021/04/18 04:42:25;;;;;;;6.43;5.93;;;11.00;55.70;;;;;;5024924;28;20198;-44
2021/04/18 04:44:50;;;;;;;7.00;6.20;;;11.00;55.50;;;;;;5030610;28;20221;-44
2021/04/18 04:47:16;;;;;;;8.23;7.40;;;11.00;55.60;;;;;;5029902;28;20193;-42
2021/04/18 04:49:41;;;;;;;6.97;6.37;;;11.00;55.80;;;;;;5022770;28;20197;-45
2021/04/18 04:52:09;;;;;;;7.03;6.43;;;11.00;55.90;;;;;;5023919;28;20241;-45
2021/04/18 04:54:38;;;;;;;6.40;5.80;;;11.00;56.00;;;;;;5020943;28;20247;-43
2021/04/18 04:57:05;;;;;;;8.10;7.27;;;11.00;55.90;;;;;;5022324;28;20915;-44
2021/04/18 04:59:31;;;;;;;9.27;6.87;;;11.00;55.70;;;;;;5024574;28;20440;-43
2021/04/18 05:01:56;;;;;;;7.87;6.47;;;11.00;55.50;;;;;;5024544;28;20812;-42
2021/04/18 05:04:22;;;;;;;8.77;7.43;;;11.00;55.50;;;;;;5025476;28;20440;-44
2021/04/18 05:06:47;;;;;;;7.47;6.83;;;11.00;55.30;;;;;;5031588;28;20300;-44
2021/04/18 05:09:13;;;;;;;7.30;6.60;;;11.00;55.20;;;;;;5024767;28;20243;-43
2021/04/18 05:11:38;;;;;;;8.63;6.97;;;10.90;55.00;;;;;;5025395;28;20657;-44
2021/04/18 05:14:04;;;;;;;9.00;7.33;;;10.70;55.70;;;;;;5019588;28;20244;-43
2021/04/18 05:16:30;;;;;;;8.17;7.40;;;10.70;56.00;;;;;;5029834;28;20664;-44
2021/04/18 05:18:55;;;;;;;6.63;5.93;;;10.80;56.00;;;;;;5025002;28;20304;-41
2021/04/18 05:21:23;;;;;;;9.73;5.67;;;11.00;56.70;;;;;;5026918;28;20293;-42
2021/04/18 05:23:48;;;;;;;6.73;6.10;;;11.20;56.90;;;;;;5026282;28;20200;-41
2021/04/18 05:26:14;;;;;;;5.87;5.30;;;11.40;56.00;;;;;;5026576;28;20452;-42
2021/04/18 05:28:40;;;;;;;6.27;5.23;;;11.60;55.90;;;;;;5029137;28;20193;-42
2021/04/18 05:31:05;;;;;;;5.10;4.27;;;11.80;55.30;;;;;;5020493;28;20220;-42
2021/04/18 05:33:31;;;;;;;6.27;5.67;;;12.00;54.70;;;;;;5030267;28;20578;-42
2021/04/18 05:35:57;;;;;;;6.20;5.60;;;12.20;54.50;;;;;;5029579;28;20202;-42
2021/04/18 05:38:23;;;;;;;7.17;6.57;;;12.40;53.60;;;;;;5028458;28;20278;-42
2021/04/18 05:40:48;;;;;;;9.90;6.17;;;12.50;53.10;;;;;;5020058;28;20591;-42
2021/04/18 05:43:15;;;;;;;6.40;5.80;;;12.60;52.60;;;;;;5028073;28;20288;-42
2021/04/18 05:45:40;;;;;;;5.30;4.80;;;12.70;52.30;;;;;;5028559;28;20194;-42
2021/04/18 05:48:06;;;;;;;6.40;5.77;;;12.80;52.00;;;;;;5022873;28;20467;-41
2021/04/18 05:50:32;;;;;;;6.47;5.87;;;12.90;51.30;;;;;;5025526;28;20197;-41
2021/04/18 05:52:58;;;;;;;5.47;4.97;;;12.90;51.00;;;;;;5013866;28;20520;-42
2021/04/18 05:55:24;;;;;;;6.50;5.83;;;12.90;51.20;;;;;;5027021;28;20524;-42
2021/04/18 05:57:49;;;;;;;5.20;4.80;;;12.90;51.30;;;;;;5028915;28;20221;-41
2021/04/18 06:00:16;;;;;;;6.63;5.97;;;13.00;51.40;;;;;;5025711;28;20247;-43
2021/04/18 06:02:41;;;;;;;6.83;5.87;;;13.10;51.10;;;;;;5018441;28;20201;-42
2021/04/18 06:05:08;;;;;;;6.60;6.00;;;13.10;51.10;;;;;;5023810;28;20838;-42
2021/04/18 06:07:33;;;;;;;6.47;5.93;;;13.10;50.90;;;;;;5023198;28;20182;-42
2021/04/18 06:09:59;;;;;;;6.23;5.30;;;13.10;50.80;;;;;;5024299;28;20451;-42
2021/04/18 06:12:25;;;;;;;7.23;6.57;;;13.10;50.80;;;;;;5019940;28;20209;-42
2021/04/18 06:14:52;;;;;;;6.53;5.93;;;13.00;50.90;;;;;;5024066;28;20196;-42
2021/04/18 06:17:17;;;;;;;7.30;6.60;;;13.10;51.00;;;;;;5027277;28;20252;-41
2021/04/18 06:19:43;;;;;;;5.70;5.20;;;13.00;51.00;;;;;;5030214;28;20435;-43
2021/04/18 06:22:09;;;;;;;5.57;5.10;;;13.00;50.90;;;;;;5020265;28;20193;-42
2021/04/18 06:24:34;;;;;;;7.50;6.27;;;13.00;51.10;;;;;;5028791;28;20703;-42
2021/04/18 06:27:00;;;;;;;7.07;5.80;;;13.00;50.80;;;;;;5021847;28;20198;-41
2021/04/18 06:29:25;;;;;;;6.40;5.90;;;12.90;50.50;;;;;;5028175;28;20199;-42
2021/04/18 06:31:51;;;;;;;6.33;5.83;;;12.90;50.90;;;;;;5017023;28;20190;-43
2021/04/18 06:34:21;;;;;;;6.60;6.10;;;13.00;51.00;;;;;;5025314;28;20235;-42
2021/04/18 06:36:47;;;;;;;6.53;5.97;;;13.10;51.10;;;;;;5030754;28;20224;-41
2021/04/18 06:39:13;;;;;;;6.33;5.80;;;13.20;51.10;;;;;;5030034;28;20444;-44
2021/04/18 06:41:40;;;;;;;6.50;5.60;;;13.30;51.00;;;;;;5028351;28;20232;-41
2021/04/18 06:44:05;;;;;;;8.47;6.40;;;13.30;50.60;;;;;;5018116;28;20197;-41
2021/04/18 06:46:32;;;;;;;9.33;6.70;;;13.30;50.30;;;;;;5021075;28;20439;-41
2021/04/18 06:48:59;;;;;;;6.97;6.10;;;13.30;50.20;;;;;;5020419;28;20202;-41
2021/04/18 06:51:25;;;;;;;6.33;5.73;;;13.30;50.30;;;;;;5028184;28;20481;-41
2021/04/18 06:53:50;;;;;;;6.90;6.30;;;13.30;50.40;;;;;;5030151;28;20440;-41
2021/04/18 06:56:16;;;;;;;7.00;6.30;;;13.30;50.50;;;;;;5018903;28;20541;-41
2021/04/18 06:58:41;;;;;;;7.13;6.43;;;13.40;50.20;;;;;;5024922;28;20189;-41
2021/04/18 07:01:07;;;;;;;5.63;5.03;;;13.40;50.30;;;;;;5021402;28;20197;-43
2021/04/18 07:03:33;;;;;;;6.60;5.97;;;13.40;50.20;;;;;;5023416;28;20197;-41
2021/04/18 07:05:59;;;;;;;8.10;6.10;;;13.30;49.80;;;;;;5028812;28;20210;-42
2021/04/18 07:08:27;;;;;;;7.07;6.37;;;13.40;49.70;;;;;;5024485;28;20216;-41
2021/04/18 07:11:10;;;;;;;7.17;6.47;;;13.40;49.60;;;;;;5024855;28;20503;-42
2021/04/18 07:13:36;;;;;;;7.00;6.30;;;13.40;49.60;;;;;;5022715;28;20432;-42
2021/04/18 07:16:02;;;;;;;7.77;6.80;;;13.30;49.30;;;;;;5022167;28;20448;-43
2021/04/18 07:18:39;;;;;;;10.70;8.50;;;13.30;49.20;;;;;;5026558;28;20830;-41
2021/04/18 07:21:05;;;;;;;8.90;8.00;;;13.30;49.50;;;;;;5027235;28;20197;-41
2021/04/18 07:23:34;;;;;;;8.67;7.77;;;13.40;49.60;;;;;;5028589;28;20846;-43
2021/04/18 07:26:21;;;;;;;8.80;6.90;;;13.40;49.70;;;;;;5037337;28;20308;-41
2021/04/18 07:28:47;;;;;;;7.30;6.60;;;13.50;49.50;;;;;;5025235;28;20436;-43
2021/04/18 07:31:28;;;;;;;8.30;7.50;;;13.50;49.00;;;;;;5028311;28;21331;-43
2021/04/18 07:34:07;;;;;;;7.67;6.87;;;13.50;48.80;;;;;;5030068;28;20440;-43
2021/04/18 07:36:35;;;;;;;7.53;6.73;;;13.60;48.30;;;;;;5016814;28;20729;-41
2021/04/18 07:39:01;;;;;;;8.80;7.90;;;13.60;48.30;;;;;;5032176;28;20431;-41
2021/04/18 07:41:27;;;;;;;10.43;8.50;;;13.60;48.20;;;;;;5034736;28;20439;-41
2021/04/18 07:43:53;;;;;;;8.70;7.90;;;13.70;48.00;;;;;;5030957;28;20443;-42
2021/04/18 07:46:20;;;;;;;9.63;8.63;;;13.70;48.00;;;;;;5034498;28;20542;-41
2021/04/18 07:48:47;;;;;;;8.20;7.30;;;13.70;48.10;;;;;;5033118;28;20428;-43
2021/04/18 07:51:14;;;;;;;9.10;6.77;;;13.80;48.10;;;;;;5028617;28;20448;-42
2021/04/18 07:53:41;;;;;;;7.87;7.13;;;13.80;48.20;;;;;;5029488;28;20432;-42
2021/04/18 07:56:14;;;;;;;8.87;7.20;;;13.90;48.40;;;;;;5025142;28;20995;-41
2021/04/18 07:58:42;;;;;;;7.17;6.57;;;13.90;48.50;;;;;;5025216;28;20456;-42
2021/04/18 08:01:08;;;;;;;8.10;7.30;;;13.90;48.30;;;;;;5026758;28;20454;-42
2021/04/18 08:03:36;;;;;;;7.33;6.63;;;13.90;48.30;;;;;;5025909;28;20795;-43
2021/04/18 08:06:03;;;;;;;6.47;5.97;;;13.90;48.20;;;;;;5026720;28;20236;-44
2021/04/18 08:08:48;;;;;;;9.67;7.67;;;13.90;47.90;;;;;;5027947;28;20898;-45
2021/04/18 08:11:15;;;;;;;6.80;5.57;;;13.90;47.90;;;;;;5030030;28;20491;-43
2021/04/18 08:13:43;;;;;;;8.23;6.63;;;13.90;48.10;;;;;;5034058;28;20420;-43
2021/04/18 08:16:09;;;;;;;9.27;5.50;;;13.90;47.90;;;;;;5024768;28;20432;-44
2021/04/18 08:18:37;;;;;;;7.70;6.70;;;13.90;48.10;;;;;;5025437;28;20575;-43
2021/04/18 08:21:33;;;;;;;7.87;7.13;;;14.00;48.50;;;;;;5026648;28;20491;-43
2021/04/18 08:24:00;;;;;;;7.73;6.00;;;14.10;48.50;;;;;;5033110;28;20497;-44
2021/04/18 08:26:28;;;;;;;8.63;7.70;;;14.10;48.00;;;;;;5028344;28;20724;-43
2021/04/18 08:28:53;;;;;;;7.10;6.40;;;14.10;47.90;;;;;;5033142;28;20435;-45
2021/04/18 08:31:20;;;;;;;7.20;6.50;;;14.00;47.10;;;;;;5023605;28;20440;-44
2021/04/18 08:33:50;;;;;;;8.03;6.67;;;14.10;47.30;;;;;;5027397;28;20194;-43
2021/04/18 08:36:22;;;;;;;8.20;6.30;;;14.20;47.80;;;;;;5032169;28;20431;-41
2021/04/18 08:39:04;;;;;;;7.70;7.00;;;14.20;46.90;;;;;;5032395;28;20447;-41
2021/04/18 08:41:43;;;;;;;7.00;6.30;;;14.30;46.80;;;;;;5032418;28;20435;-41
2021/04/18 08:44:21;;;;;;;6.20;5.60;;;14.40;47.00;;;;;;5031599;28;20443;-41
2021/04/18 08:46:50;;;;;;;7.03;5.93;;;14.50;47.00;;;;;;5032297;28;20454;-41
2021/04/18 08:49:26;;;;;;;7.37;6.60;;;14.30;46.60;;;;;;5029449;28;20467;-42
2021/04/18 08:51:53;;;;;;;7.90;6.30;;;14.40;46.90;;;;;;5032054;28;20427;-42
2021/04/18 08:54:28;;;;;;;5.27;4.77;;;14.40;46.70;;;;;;5024629;28;20483;-43
2021/04/18 08:56:57;;;;;;;6.53;5.93;;;14.50;46.50;;;;;;5030203;28;20479;-44
2021/04/18 08:59:23;;;;;;;7.37;6.77;;;14.50;46.20;;;;;;5026882;28;20425;-43
2021/04/18 09:01:55;;;;;;;7.53;6.80;;;14.60;46.40;;;;;;5021978;28;20448;-43
2021/04/18 09:04:22;;;;;;;9.00;6.20;;;14.50;46.70;;;;;;5016796;28;20498;-42
2021/04/18 09:06:48;;;;;;;8.20;6.53;;;14.50;46.60;;;;;;5027812;28;20794;-42
2021/04/18 09:09:14;;;;;;;7.70;6.00;;;14.60;46.40;;;;;;5013379;28;20847;-42
2021/04/18 09:11:44;;;;;;;12.13;7.10;;;14.60;46.50;;;;;;5027995;28;20441;-42
2021/04/18 09:14:09;;;;;;;8.33;6.80;;;14.60;46.70;;;;;;5023625;28;20492;-43
2021/04/18 09:16:38;;;;;;;8.23;7.37;;;14.80;46.70;;;;;;5021926;28;20459;-42
2021/04/18 09:19:30;;;;;;;9.23;7.80;;;14.90;45.90;;;;;;5003207;28;602695;-42
2021/04/18 09:22:04;;;;;;;6.90;6.13;;;15.00;45.80;;;;;;5021718;28;20198;-44
2021/04/18 09:24:31;;;;;;;6.57;5.97;;;15.10;45.70;;;;;;5010896;28;20436;-44
2021/04/18 09:27:05;;;;;;;6.73;6.03;;;15.10;45.50;;;;;;5029752;28;20951;-44
2021/04/18 09:29:32;;;;;;;6.10;5.33;;;15.10;45.60;;;;;;5024808;28;20459;-42
2021/04/18 09:32:04;;;;;;;8.00;5.63;;;15.00;46.10;;;;;;5032330;28;20428;-45
2021/04/18 09:34:30;;;;;;;5.73;5.23;;;15.10;46.20;;;;;;5030333;28;20509;-44
2021/04/18 09:36:58;;;;;;;7.80;5.67;;;15.20;45.10;;;;;;5032418;28;20471;-45
2021/04/18 09:39:30;;;;;;;8.97;5.63;;;15.20;44.80;;;;;;5023327;28;21061;-43
2021/04/18 09:41:57;;;;;;;6.77;6.07;;;15.20;44.70;;;;;;5031988;28;20566;-43
2021/04/18 09:44:29;;;;;;;7.30;6.00;;;15.30;44.60;;;;;;5031289;28;20440;-43
2021/04/18 09:46:58;;;;;;;6.77;5.93;;;15.40;44.80;;;;;;5031379;28;20489;-43
2021/04/18 09:49:24;;;;;;;7.03;6.43;;;15.50;44.60;;;;;;5023711;28;20845;-42
2021/04/18 09:52:00;;;;;;;7.03;6.33;;;15.60;44.70;;;;;;5021140;28;20431;-43
2021/04/18 09:54:29;;;;;;;8.07;5.80;;;15.60;43.90;;;;;;5026313;28;20442;-42
2021/04/18 09:57:23;;;;;;;7.57;6.30;;;15.70;43.60;;;;;;5029608;28;21089;-43
2021/04/18 10:00:30;;;;;;;6.90;6.10;;;15.70;43.50;;;;;;5028902;28;20432;-44
2021/04/18 10:03:10;;;;;;;6.90;6.20;;;15.70;43.10;;;;;;5018658;28;20449;-43
2021/04/18 10:05:43;;;;;;;8.07;6.50;;;15.60;42.90;;;;;;5022887;28;20944;-44
2021/04/18 10:08:24;;;;;;;6.93;5.73;;;15.60;43.60;;;;;;5018750;28;20440;-45
2021/04/18 10:10:55;;;;;;;8.40;6.73;;;15.50;43.10;;;;;;5028048;28;20787;-43
2021/04/18 10:13:59;;;;;;;10.13;7.17;;;15.60;42.80;;;;;;5026048;28;20440;-44
2021/04/18 10:16:33;;;;;;;8.53;6.63;;;15.70;43.00;;;;;;5030287;28;20943;-43
2021/04/18 10:19:14;;;;;;;9.83;6.27;;;15.80;43.00;;;;;;5019875;28;20970;-43
2021/04/18 10:21:42;;;;;;;6.10;5.37;;;15.90;42.70;;;;;;5019043;28;20443;-43
2021/04/18 10:24:29;;;;;;;8.87;6.97;;;15.80;42.80;;;;;;5025909;28;20429;-44
2021/04/18 10:26:55;;;;;;;7.90;5.73;;;15.90;42.70;;;;;;5028189;28;20439;-44
2021/04/18 10:29:20;;;;;;;7.40;6.70;;;15.90;42.60;;;;;;5030749;28;20496;-42
2021/04/18 10:31:46;;;;;;;8.53;5.77;;;16.00;42.50;;;;;;5025602;28;20235;-42
2021/04/18 10:34:11;;;;;;;7.27;6.50;;;15.90;42.00;;;;;;5023955;28;20237;-43
2021/04/18 10:36:37;;;;;;;9.90;7.87;;;16.10;42.10;;;;;;5022895;28;20691;-43
2021/04/18 10:39:03;;;;;;;8.10;6.33;;;16.10;42.50;;;;;;5025363;28;20272;-43
2021/04/18 10:41:28;;;;;;;9.63;7.00;;;16.20;42.60;;;;;;5023057;28;20382;-45
2021/04/18 10:43:54;;;;;;;7.20;6.50;;;16.30;43.20;;;;;;5027160;28;21017;-43
2021/04/18 10:46:19;;;;;;;8.70;6.27;;;16.30;42.50;;;;;;5028972;28;20204;-43
2021/04/18 10:48:45;;;;;;;7.80;7.10;;;16.40;42.60;;;;;;5022635;28;20198;-43
2021/04/18 10:51:11;;;;;;;7.90;7.10;;;16.40;42.30;;;;;;5013099;28;20190;-43
2021/04/18 10:53:37;;;;;;;11.40;7.27;;;16.50;41.90;;;;;;5023051;28;20661;-43
2021/04/18 10:56:02;;;;;;;8.37;7.13;;;16.60;41.70;;;;;;5028080;28;20205;-44
2021/04/18 10:58:28;;;;;;;8.20;6.23;;;16.70;41.10;;;;;;5030702;28;20502;-43
2021/04/18 11:00:54;;;;;;;10.20;6.17;;;16.70;40.70;;;;;;5027941;28;20276;-46
2021/04/18 11:03:19;;;;;;;8.03;6.60;;;16.80;41.00;;;;;;5019164;28;20243;-43
2021/04/18 11:05:45;;;;;;;7.80;7.00;;;16.80;40.90;;;;;;5019546;28;20321;-44
2021/04/18 11:08:13;;;;;;;8.50;7.10;;;16.80;40.90;;;;;;5022149;28;20189;-43
2021/04/18 11:10:38;;;;;;;8.40;7.60;;;16.60;41.50;;;;;;5020527;28;20193;-42
2021/04/18 11:13:04;;;;;;;7.50;6.50;;;16.70;42.10;;;;;;5018756;28;20442;-43
2021/04/18 11:15:30;;;;;;;10.23;6.93;;;16.70;42.30;;;;;;5019969;28;20194;-43
2021/04/18 11:17:55;;;;;;;7.67;6.70;;;16.70;42.30;;;;;;5020569;28;20241;-46
2021/04/18 11:20:22;;;;;;;8.43;6.80;;;16.70;41.80;;;;;;5021208;28;20202;-43
2021/04/18 11:22:47;;;;;;;7.33;6.30;;;16.70;41.20;;;;;;5023200;28;20708;-42
2021/04/18 11:25:14;;;;;;;8.40;7.30;;;16.70;41.20;;;;;;5028865;28;20566;-43
2021/04/18 11:27:40;;;;;;;8.17;7.37;;;16.80;41.90;;;;;;5027521;28;20189;-43
2021/04/18 11:30:09;;;;;;;9.23;7.70;;;16.90;41.60;;;;;;5020851;28;20437;-43
2021/04/18 11:32:35;;;;;;;6.30;5.63;;;17.00;42.20;;;;;;5017193;28;20591;-43
2021/04/18 11:35:00;;;;;;;9.07;7.30;;;17.00;41.40;;;;;;5027574;28;20485;-46
2021/04/18 11:37:26;;;;;;;7.67;6.53;;;17.10;41.00;;;;;;5020818;28;20479;-47
2021/04/18 11:39:53;;;;;;;9.53;7.80;;;17.10;40.50;;;;;;5024123;28;20197;-46
2021/04/18 11:42:19;;;;;;;7.07;6.37;;;16.70;40.50;;;;;;5016282;28;20193;-46
2021/04/18 11:44:44;;;;;;;8.30;6.97;;;16.60;41.70;;;;;;5020925;28;20430;-47
2021/04/18 11:47:10;;;;;;;7.57;6.77;;;16.70;42.40;;;;;;5027034;28;20201;-44
2021/04/18 11:49:35;;;;;;;9.40;6.50;;;16.60;42.90;;;;;;5029947;28;20194;-44
2021/04/18 11:52:01;;;;;;;7.60;6.70;;;16.70;41.70;;;;;;5010911;28;20560;-45
2021/04/18 11:54:27;;;;;;;9.20;7.80;;;16.70;42.20;;;;;;5028137;28;20201;-45
2021/04/18 11:56:52;;;;;;;12.00;8.63;;;16.70;42.00;;;;;;5028063;28;20661;-49
2021/04/18 11:59:18;;;;;;;13.50;12.10;;;16.70;41.80;;;;;;5021580;28;20220;-46
2021/04/18 12:01:44;;;;;;;8.70;7.70;;;16.80;41.90;;;;;;5026010;28;20657;-44
2021/04/18 12:04:09;;;;;;;6.57;5.93;;;16.90;41.60;;;;;;5040322;28;20277;-46
2021/04/18 12:06:35;;;;;;;7.60;6.80;;;16.90;41.10;;;;;;5025644;28;20276;-44
2021/04/18 12:09:00;;;;;;;7.10;6.40;;;16.90;41.30;;;;;;5023134;28;20197;-48
2021/04/18 12:11:26;;;;;;;8.67;6.93;;;16.90;41.00;;;;;;5022628;28;20941;-44
2021/04/18 12:13:52;;;;;;;9.20;6.97;;;17.00;40.90;;;;;;5025629;28;20255;-44
2021/04/18 12:16:18;;;;;;;7.87;7.27;;;17.00;41.20;;;;;;5022618;28;20232;-44
2021/04/18 12:18:44;;;;;;;7.27;6.53;;;16.90;41.70;;;;;;5015760;28;20241;-45
2021/04/18 12:21:10;;;;;;;10.23;7.90;;;17.00;41.10;;;;;;5027067;28;20193;-45
2021/04/18 12:23:36;;;;;;;8.70;7.80;;;17.00;40.80;;;;;;5022778;28;20441;-47
2021/04/18 12:26:03;;;;;;;14.43;7.30;;;17.00;41.10;;;;;;5029363;28;20436;-45
2021/04/18 12:28:29;;;;;;;7.33;4.17;;;17.10;40.60;;;;;;5012687;28;20432;-43
2021/04/18 12:30:54;;;;;;;8.27;7.47;;;17.10;40.90;;;;;;5028868;28;20797;-43
2021/04/18 12:33:20;;;;;;;6.90;6.30;;;16.80;41.20;;;;;;5020851;28;20432;-42
2021/04/18 12:35:46;;;;;;;8.37;5.27;;;16.80;41.60;;;;;;5029085;28;20193;-43
2021/04/18 12:38:11;;;;;;;8.00;7.20;;;17.00;42.40;;;;;;5028103;28;20233;-44
2021/04/18 12:40:37;;;;;;;9.33;6.60;;;17.10;41.20;;;;;;5020804;28;20215;-43
2021/04/18 12:43:03;;;;;;;7.80;7.00;;;17.10;40.90;;;;;;5030419;28;20197;-42
2021/04/18 12:45:29;;;;;;;8.23;7.00;;;17.10;40.50;;;;;;5029776;28;20866;-43
2021/04/18 12:47:54;;;;;;;7.53;6.73;;;17.20;40.90;;;;;;5019427;28;20189;-44